Time;durP1;ratioP1;P1;durP2;ratioP2;P2;SDS_P1;SDS_P2;PMS_P1;PMS_P2;Temp;Humidity;BMP_temperature;BMP_pressure;BME280_temperature;BME280_humidity;BME280_pressure;Samples;Min_cycle;Max_cycle;Signal;HPM_P1;HPM_P2
2022/12/14 00:01:36;;;;;;;48.10;23.10;;;;;;;2.53;84.53;94534.75;4985466;28;20410;-78
2022/12/14 00:04:02;;;;;;;44.27;21.40;;;;;;;2.52;84.75;94535.72;4985846;28;20252;-77
2022/12/14 00:06:29;;;;;;;41.17;19.43;;;;;;;2.57;84.56;94541.22;4994530;28;20177;-77
2022/12/14 00:08:57;;;;;;;44.03;20.90;;;;;;;2.53;84.63;94545.13;4991027;28;20173;-78
2022/12/14 00:11:23;;;;;;;47.57;22.00;;;;;;;2.45;85.00;94544.34;4989229;28;20201;-77
2022/12/14 00:13:54;;;;;;;46.13;20.37;;;;;;;2.46;84.79;94544.19;4985667;28;20173;-77
2022/12/14 00:16:19;;;;;;;48.10;23.23;;;;;;;2.44;85.37;94543.53;4985699;28;20205;-77
2022/12/14 00:18:49;;;;;;;38.27;20.77;;;;;;;2.38;85.79;94541.63;4981098;28;20205;-77
2022/12/14 00:21:15;;;;;;;38.80;19.60;;;;;;;2.29;86.49;94542.63;4990845;28;20173;-77
2022/12/14 00:23:43;;;;;;;39.27;18.90;;;;;;;2.10;86.88;94550.81;4994336;28;20173;-78
2022/12/14 00:26:13;;;;;;;42.27;19.17;;;;;;;1.87;87.51;94520.38;4992761;28;20216;-77
2022/12/14 00:28:40;;;;;;;43.55;22.25;;;;;;;2.02;87.79;94543.84;4977505;28;20890;-77
2022/12/14 00:31:06;;;;;;;43.57;23.50;;;;;;;2.08;87.97;94539.78;4973208;28;20793;-76
2022/12/14 00:33:32;;;;;;;42.53;21.77;;;;;;;1.97;87.99;94519.38;4966778;28;20521;-77
2022/12/14 00:35:58;;;;;;;34.93;18.73;;;;;;;1.92;88.58;94506.09;4995498;28;20173;-77
2022/12/14 00:38:23;;;;;;;37.50;18.37;;;;;;;2.16;88.10;94540.56;4994152;28;20699;-77
2022/12/14 00:40:50;;;;;;;38.07;19.60;;;;;;;2.22;88.12;94539.91;4993812;28;20184;-77
2022/12/14 00:43:15;;;;;;;39.33;19.20;;;;;;;2.21;87.73;94542.66;4993797;28;20216;-77
2022/12/14 00:45:43;;;;;;;42.83;21.70;;;;;;;2.24;88.43;94542.34;4985205;28;20192;-77
2022/12/14 00:48:10;;;;;;;42.77;20.60;;;;;;;2.18;88.15;94541.22;4978295;28;20236;-77
2022/12/14 00:50:35;;;;;;;42.57;20.53;;;;;;;2.04;88.69;94525.53;4975039;28;20185;-77
2022/12/14 00:53:00;;;;;;;40.83;19.60;;;;;;;2.18;88.70;94554.19;4974329;28;20178;-77
2022/12/14 00:55:26;;;;;;;49.23;24.50;;;;;;;2.03;88.82;94518.72;4987283;28;20969;-78
2022/12/14 00:57:52;;;;;;;37.23;20.20;;;;;;;2.15;89.75;94543.34;4983680;28;20177;-78
2022/12/14 01:00:17;;;;;;;29.25;17.17;;;;;;;2.20;89.08;94546.25;4992899;28;20419;-78
2022/12/14 01:02:43;;;;;;;31.83;18.00;;;;;;;2.07;89.72;94533.00;4991769;28;20866;-77
2022/12/14 01:05:08;;;;;;;27.00;15.27;;;;;;;2.21;90.01;94542.66;4987996;28;20236;-78
2022/12/14 01:07:34;;;;;;;27.53;15.77;;;;;;;2.19;90.13;94540.22;4990445;28;20177;-77
2022/12/14 01:09:59;;;;;;;39.17;17.53;;;;;;;2.29;90.03;94542.63;4983363;28;20616;-77
2022/12/14 01:12:25;;;;;;;29.87;14.60;;;;;;;2.27;89.86;94542.81;4977415;28;20197;-78
2022/12/14 01:14:50;;;;;;;33.22;18.70;;;;;;;2.25;90.26;94542.16;4991538;28;20934;-78
2022/12/14 01:17:17;;;;;;;32.60;17.27;;;;;;;2.35;90.53;94533.34;4985524;28;20236;-77
2022/12/14 01:19:42;;;;;;;24.90;14.70;;;;;;;2.42;89.41;94536.91;4983959;28;20188;-77
2022/12/14 01:22:09;;;;;;;16.80;10.43;;;;;;;2.50;88.25;94542.06;4991472;28;20404;-77
2022/12/14 01:24:35;;;;;;;17.03;9.53;;;;;;;2.35;88.36;94528.97;4993153;28;20284;-78
2022/12/14 01:27:00;;;;;;;14.07;8.00;;;;;;;2.39;87.98;94532.88;4975734;28;20225;-78
2022/12/14 01:29:26;;;;;;;15.18;9.25;;;;;;;2.48;87.57;94528.44;4989281;28;20838;-78
2022/12/14 01:31:52;;;;;;;9.40;5.90;;;;;;;2.35;85.46;94530.75;4983089;28;20199;-78
2022/12/14 01:34:17;;;;;;;12.35;7.18;;;;;;;2.11;86.44;94524.69;4979463;28;20902;-78
2022/12/14 01:36:43;;;;;;;11.33;7.17;;;;;;;2.06;87.67;94524.41;4984163;28;20499;-78
2022/12/14 01:39:14;;;;;;;10.35;6.32;;;;;;;2.03;87.47;94518.72;4990322;28;20413;-77
2022/12/14 01:41:46;;;;;;;10.10;6.68;;;;;;;1.93;87.65;94518.91;4988913;28;20511;-78
2022/12/14 01:44:11;;;;;;;9.73;6.90;;;;;;;1.82;87.65;94509.66;4990531;28;20435;-78
2022/12/14 01:46:37;;;;;;;10.13;6.38;;;;;;;1.70;87.91;94513.63;4976998;28;20417;-79
2022/12/14 01:49:29;;;;;;;10.70;6.90;;;;;;;1.70;88.38;94518.00;4982739;28;20421;-78
2022/12/14 01:51:57;;;;;;;18.17;6.90;;;;;;;1.64;89.11;94506.50;4988824;28;20428;-77
2022/12/14 01:54:26;;;;;;;11.85;6.90;;;;;;;1.62;89.25;94474.72;4991790;28;20408;-78
2022/12/14 01:56:53;;;;;;;12.43;7.57;;;;;;;1.70;89.02;94503.22;4976369;28;20421;-79
2022/12/14 01:59:24;;;;;;;9.02;6.28;;;;;;;1.41;89.22;94466.66;4981370;28;20799;-78
2022/12/14 02:01:50;;;;;;;11.48;6.60;;;;;;;1.65;89.30;94502.91;4971976;28;20785;-78
2022/12/14 02:04:17;;;;;;;10.50;6.67;;;;;;;1.73;90.06;94505.47;4981690;28;20181;-78
2022/12/14 02:06:46;;;;;;;11.70;6.65;;;;;;;1.63;89.71;94491.91;4981229;28;20413;-78
2022/12/14 02:09:17;;;;;;;11.03;6.17;;;;;;;1.66;89.82;94496.75;4992283;28;20189;-78
2022/12/14 02:11:45;;;;;;;10.20;6.95;;;;;;;1.73;90.92;94502.88;4990621;28;20427;-78
2022/12/14 02:14:11;;;;;;;11.77;6.75;;;;;;;1.78;90.32;94497.22;4974559;28;20444;-78
2022/12/14 02:16:38;;;;;;;10.47;6.73;;;;;;;1.79;89.66;94496.25;4971258;28;20413;-76
2022/12/14 02:19:03;;;;;;;10.27;6.35;;;;;;;1.88;89.71;94490.06;4970774;28;20471;-76
2022/12/14 02:21:46;;;;;;;10.77;6.63;;;;;;;1.90;88.94;94485.53;4971104;28;20421;-76
2022/12/14 02:24:23;;;;;;;9.63;5.97;;;;;;;2.02;88.64;94485.94;4980926;28;20189;-77
2022/12/14 02:27:11;;;;;;;8.40;5.20;;;;;;;1.98;88.94;94480.31;4991157;28;20750;-77
2022/12/14 02:29:47;;;;;;;10.00;5.73;;;;;;;2.03;89.01;94482.38;4990831;28;20239;-76
2022/12/14 02:32:16;;;;;;;7.50;4.93;;;;;;;1.92;88.44;94486.13;4990790;28;20196;-77
2022/12/14 02:35:00;;;;;;;8.77;5.93;;;;;;;1.68;87.83;94470.66;4990054;28;20515;-76
2022/12/14 02:37:37;;;;;;;9.03;5.90;;;;;;;1.83;88.83;94476.75;4990484;28;20427;-76
2022/12/14 02:40:08;;;;;;;9.52;6.35;;;;;;;1.80;89.12;94483.09;4989829;28;20446;-76
2022/12/14 02:42:53;;;;;;;9.40;5.60;;;;;;;1.88;88.54;94475.31;4982862;28;20706;-77
2022/12/14 02:45:30;;;;;;;8.13;5.82;;;;;;;2.07;87.55;94478.47;4979438;28;20415;-77
2022/12/14 02:48:02;;;;;;;9.90;6.43;;;;;;;1.94;86.91;94468.63;4971430;28;20462;-76
2022/12/14 02:50:53;;;;;;;7.45;5.32;;;;;;;1.85;87.63;94469.63;4977011;28;20583;-76
2022/12/14 02:53:27;;;;;;;9.40;5.53;;;;;;;1.69;87.71;94448.94;4976497;28;20198;-77
2022/12/14 02:55:57;;;;;;;7.87;4.80;;;;;;;1.93;88.36;94474.78;4978788;28;20635;-77
2022/12/14 02:58:29;;;;;;;11.10;6.35;;;;;;;1.74;86.77;94464.78;4973871;28;21177;-77
2022/12/14 03:00:55;;;;;;;8.20;5.03;;;;;;;1.68;87.66;94452.50;4974306;28;20190;-77
2022/12/14 03:03:21;;;;;;;9.18;6.13;;;;;;;1.94;86.69;94468.63;4971019;28;20843;-76
2022/12/14 03:06:03;;;;;;;8.23;5.80;;;;;;;1.87;85.74;94459.91;4969864;28;20512;-76
2022/12/14 03:08:33;;;;;;;10.35;6.43;;;;;;;1.69;86.17;94465.28;4970203;28;20417;-76
2022/12/14 03:11:05;;;;;;;10.80;6.45;;;;;;;1.54;87.44;94459.19;4972393;28;21117;-76
2022/12/14 03:13:45;;;;;;;9.10;5.50;;;;;;;1.70;87.27;94473.88;4990602;28;20941;-76
2022/12/14 03:16:15;;;;;;;11.33;5.60;;;;;;;1.84;87.14;94474.00;4986097;28;20660;-76
2022/12/14 03:18:48;;;;;;;8.63;5.90;;;;;;;1.79;85.72;94452.94;4978487;28;20185;-77
2022/12/14 03:21:20;;;;;;;8.25;5.38;;;;;;;1.89;85.37;94466.53;4992890;28;20415;-77
2022/12/14 03:23:47;;;;;;;9.32;5.57;;;;;;;1.91;86.10;94463.75;4993162;28;20423;-76
2022/12/14 03:26:31;;;;;;;12.43;6.20;;;;;;;1.89;85.40;94450.97;4993280;28;20997;-76
2022/12/14 03:29:05;;;;;;;9.45;5.97;;;;;;;1.93;84.65;94435.03;4981472;28;20921;-77
2022/12/14 03:32:04;;;;;;;9.48;5.70;;;;;;;2.06;84.35;94462.09;4974859;28;20429;-77
2022/12/14 03:34:51;;;;;;;8.50;5.18;;;;;;;2.15;83.50;94470.66;4971359;28;20810;-77
2022/12/14 03:37:37;;;;;;;9.53;5.40;;;;;;;2.09;82.69;94461.75;4984051;28;20571;-77
2022/12/14 03:40:05;;;;;;;7.93;5.10;;;;;;;2.18;82.73;94465.13;4992684;28;20535;-77
2022/12/14 03:42:33;;;;;;;7.43;4.87;;;;;;;2.16;82.85;94470.47;4986060;28;20528;-77
2022/12/14 03:45:08;;;;;;;8.75;5.53;;;;;;;2.01;83.32;94466.97;4975298;28;20487;-77
2022/12/14 03:47:55;;;;;;;9.70;5.43;;;;;;;2.07;82.75;94468.09;4982004;28;20177;-77
2022/12/14 03:50:35;;;;;;;7.80;5.68;;;;;;;2.00;82.72;94461.94;4989024;28;20411;-76
2022/12/14 03:53:44;;;;;;;8.48;5.25;;;;;;;1.93;82.98;94463.59;4974640;28;20816;-76
2022/12/14 03:56:29;;;;;;;8.40;5.75;;;;;;;1.92;83.71;94452.41;4973162;28;20582;-76
2022/12/14 03:59:07;;;;;;;8.55;5.75;;;;;;;2.09;83.65;94459.16;4983474;28;20500;-77
2022/12/14 04:01:56;;;;;;;7.20;5.03;;;;;;;2.15;82.47;94462.88;4987937;28;20329;-77
2022/12/14 04:04:37;;;;;;;8.02;5.28;;;;;;;2.11;81.55;94474.56;4972957;28;20472;-76
2022/12/14 04:07:21;;;;;;;8.27;5.28;;;;;;;1.95;82.09;94475.44;4973239;28;20955;-77
2022/12/14 04:10:00;;;;;;;8.07;5.65;;;;;;;1.94;82.87;94475.59;4991884;28;20412;-76
2022/12/14 04:21:15;;;;;;;7.47;5.30;;;;;;;2.07;82.84;94475.88;4981201;28;20560;-76
2022/12/14 04:26:50;;;;;;;7.60;5.00;;;;;;;1.71;82.55;94439.19;4985230;28;20730;-76
2022/12/14 04:32:14;;;;;;;9.20;5.37;;;;;;;2.05;82.56;94473.44;4969819;28;20708;-76
2022/12/14 04:34:44;;;;;;;9.83;5.67;;;;;;;2.07;82.20;94473.28;4973960;28;20177;-78
2022/12/14 04:37:15;;;;;;;10.90;6.25;;;;;;;2.09;82.83;94489.47;4973571;28;20444;-77
2022/12/14 04:39:52;;;;;;;7.47;5.03;;;;;;;2.14;82.94;94480.22;4984433;28;21827;-78
2022/12/14 04:42:23;;;;;;;8.38;5.60;;;;;;;2.22;81.93;94487.16;4964693;28;20449;-77
2022/12/14 04:44:58;;;;;;;8.63;5.40;;;;;;;2.12;81.84;94458.81;4968392;28;20251;-77
2022/12/14 04:47:30;;;;;;;8.57;6.07;;;;;;;2.16;81.53;94454.88;4980552;28;20475;-77
2022/12/14 04:50:02;;;;;;;8.83;5.33;;;;;;;2.37;81.06;94484.66;4972429;28;20188;-77
2022/12/14 04:52:36;;;;;;;10.70;6.88;;;;;;;2.40;81.19;94485.16;4992237;28;20436;-77
2022/12/14 04:55:09;;;;;;;8.02;5.93;;;;;;;2.36;80.36;94473.47;4992636;28;20408;-77
2022/12/14 04:57:44;;;;;;;10.30;6.32;;;;;;;2.18;81.44;94460.72;4969804;28;20795;-77
2022/12/14 05:00:10;;;;;;;7.57;5.83;;;;;;;2.27;81.31;94480.47;4972872;28;20418;-77
2022/12/14 05:02:57;;;;;;;8.43;5.45;;;;;;;2.28;81.81;94466.53;4975290;28;20417;-77
2022/12/14 05:05:38;;;;;;;10.67;6.20;;;;;;;2.28;82.47;94466.53;4972595;28;20628;-77
2022/12/14 05:08:19;;;;;;;8.13;4.80;;;;;;;2.36;81.95;94465.69;4983873;28;20188;-77
2022/12/14 05:10:55;;;;;;;9.23;5.97;;;;;;;2.19;82.54;94449.38;4971293;28;20431;-77
2022/12/14 05:13:43;;;;;;;8.43;5.65;;;;;;;2.45;81.73;94479.44;4971773;28;20438;-77
2022/12/14 05:16:10;;;;;;;8.87;5.27;;;;;;;2.47;81.72;94486.06;4978044;28;20707;-77
2022/12/14 05:18:36;;;;;;;9.77;5.50;;;;;;;2.40;80.85;94490.34;4985326;28;20196;-78
2022/12/14 05:21:01;;;;;;;9.70;5.25;;;;;;;2.32;81.11;94492.16;4972784;28;20425;-77
2022/12/14 05:23:26;;;;;;;9.43;6.13;;;;;;;2.35;81.97;94513.38;4973667;28;20928;-77
2022/12/14 05:25:52;;;;;;;10.33;6.17;;;;;;;2.30;82.02;94504.50;4974366;28;20577;-76
2022/12/14 05:28:18;;;;;;;9.25;6.13;;;;;;;2.34;82.94;94510.97;4987399;28;20498;-77
2022/12/14 05:30:43;;;;;;;11.00;6.73;;;;;;;2.43;83.50;94521.16;4992797;28;20177;-78
2022/12/14 05:33:18;;;;;;;10.27;6.17;;;;;;;2.45;82.88;94532.19;4992646;28;20200;-76
2022/12/14 05:35:44;;;;;;;9.02;6.15;;;;;;;2.27;83.77;94529.81;4983317;28;20423;-76
2022/12/14 05:38:09;;;;;;;8.88;5.88;;;;;;;2.12;83.46;94505.53;4980456;28;20511;-78
2022/12/14 05:40:35;;;;;;;13.10;6.17;;;;;;;2.17;83.73;94511.03;4982525;28;20728;-75
2022/12/14 05:43:09;;;;;;;9.10;5.57;;;;;;;2.05;84.74;94480.44;4987165;28;20557;-75
2022/12/14 05:45:35;;;;;;;12.25;7.03;;;;;;;1.97;84.05;94489.06;4985341;28;20428;-75
2022/12/14 05:48:00;;;;;;;11.80;7.80;;;;;;;2.01;85.49;94505.09;4990915;28;20489;-76
2022/12/14 05:50:26;;;;;;;13.83;7.93;;;;;;;2.07;86.06;94505.25;4977905;28;20417;-77
2022/12/14 05:52:51;;;;;;;9.33;6.10;;;;;;;1.96;86.02;94482.25;4977961;28;20205;-76
2022/12/14 05:55:17;;;;;;;9.73;5.60;;;;;;;2.07;85.79;94505.25;4986922;28;20298;-77
2022/12/14 05:57:42;;;;;;;11.03;6.50;;;;;;;2.09;86.47;94524.03;4982527;28;20404;-76
2022/12/14 06:00:08;;;;;;;10.60;7.00;;;;;;;1.94;87.31;94525.72;4991364;28;20443;-76
2022/12/14 06:02:34;;;;;;;10.50;6.77;;;;;;;1.96;87.63;94528.16;4990636;28;20416;-76
2022/12/14 06:04:59;;;;;;;11.07;6.63;;;;;;;1.85;87.24;94524.09;4973229;28;20472;-76
2022/12/14 06:07:24;;;;;;;11.57;7.20;;;;;;;1.83;88.50;94519.09;4974394;28;20769;-76
2022/12/14 06:09:50;;;;;;;6.97;4.20;;;;;;;1.79;87.69;94520.41;4984443;28;20180;-76
2022/12/14 06:12:15;;;;;;;8.47;5.83;;;;;;;1.57;88.44;94509.88;4991689;28;20442;-75
2022/12/14 06:14:41;;;;;;;10.03;6.60;;;;;;;1.24;90.39;94503.94;4990735;28;20415;-76
2022/12/14 06:17:06;;;;;;;8.48;5.95;;;;;;;1.23;90.61;94517.84;4989860;28;20825;-75
2022/12/14 06:19:33;;;;;;;8.50;5.30;;;;;;;1.12;91.77;94514.63;4975998;28;20412;-75
2022/12/14 06:21:58;;;;;;;10.43;6.75;;;;;;;0.92;92.94;94505.56;4984854;28;20500;-75
2022/12/14 06:24:24;;;;;;;10.60;6.53;;;;;;;0.81;93.36;94534.34;4974189;28;20512;-76
2022/12/14 06:26:49;;;;;;;10.57;7.50;;;;;;;0.93;95.15;94530.50;4993970;28;20448;-75
2022/12/14 06:29:16;;;;;;;13.53;7.30;;;;;;;1.00;93.95;94510.75;4994312;28;20195;-75
2022/12/14 06:31:42;;;;;;;12.57;8.23;;;;;;;1.29;93.93;94530.19;4987640;28;20519;-74
2022/12/14 06:34:09;;;;;;;13.95;8.02;;;;;;;1.45;94.64;94532.78;4986263;28;20928;-74
2022/12/14 06:36:37;;;;;;;12.23;8.07;;;;;;;1.58;93.42;94533.06;4977947;28;21287;-75
2022/12/14 06:39:06;;;;;;;12.88;7.78;;;;;;;1.64;91.55;94537.63;4989211;28;20459;-74
2022/12/14 06:41:31;;;;;;;11.48;7.55;;;;;;;1.58;91.09;94514.91;4974612;28;20421;-75
2022/12/14 06:44:04;;;;;;;12.20;7.65;;;;;;;1.77;90.19;94529.31;4986045;28;20422;-75
2022/12/14 06:46:30;;;;;;;11.83;7.20;;;;;;;1.14;90.74;94486.75;4977721;28;20503;-74
2022/12/14 06:48:55;;;;;;;12.17;7.30;;;;;;;0.88;92.04;94513.78;4986523;28;20526;-74
2022/12/14 06:51:22;;;;;;;15.63;8.57;;;;;;;0.88;94.13;94537.91;4976241;28;20446;-75
2022/12/14 06:53:52;;;;;;;13.43;8.77;;;;;;;1.00;94.88;94533.25;4987167;28;20418;-75
2022/12/14 06:56:19;;;;;;;14.13;8.67;;;;;;;0.98;94.67;94536.00;4980822;28;20644;-75
2022/12/14 06:58:45;;;;;;;12.20;8.40;;;;;;;1.13;95.45;94560.28;4991339;28;20460;-74
2022/12/14 07:01:14;;;;;;;16.60;9.10;;;;;;;1.33;95.15;94547.84;4982424;28;20447;-75
2022/12/14 07:03:40;;;;;;;15.55;9.15;;;;;;;1.12;93.99;94535.34;4989165;28;20432;-75
2022/12/14 07:06:07;;;;;;;15.90;8.57;;;;;;;1.29;94.06;94550.94;4978370;28;20181;-77
2022/12/14 07:08:35;;;;;;;15.27;8.60;;;;;;;1.26;94.58;94569.38;4993821;28;20204;-76
2022/12/14 07:11:06;;;;;;;12.23;7.27;;;;;;;1.25;94.06;94552.22;4975897;28;20188;-76
2022/12/14 07:13:32;;;;;;;13.10;8.97;;;;;;;1.30;94.38;94553.34;4977552;28;20213;-75
2022/12/14 07:15:58;;;;;;;13.90;9.10;;;;;;;1.25;93.64;94550.44;4981406;28;20549;-76
2022/12/14 07:18:25;;;;;;;17.23;9.13;;;;;;;1.28;93.71;94538.94;4980402;28;20181;-76
2022/12/14 07:21:01;;;;;;;13.90;9.00;;;;;;;1.42;93.72;94549.47;4979819;28;20184;-76
2022/12/14 07:23:29;;;;;;;17.07;8.67;;;;;;;1.37;94.02;94553.53;4974717;28;20213;-75
2022/12/14 07:26:03;;;;;;;14.93;8.97;;;;;;;1.36;93.63;94552.72;4978918;28;20712;-75
2022/12/14 07:28:29;;;;;;;14.40;8.57;;;;;;;1.32;93.93;94556.59;4979503;28;20177;-76
2022/12/14 07:30:56;;;;;;;13.20;7.87;;;;;;;1.13;93.47;94555.09;4972312;28;20170;-75
2022/12/14 07:33:22;;;;;;;11.27;6.93;;;;;;;1.19;93.81;94565.81;4975957;28;20185;-74
2022/12/14 07:35:48;;;;;;;11.93;8.27;;;;;;;1.18;92.76;94567.59;4976267;28;20190;-75
2022/12/14 07:38:13;;;;;;;16.03;9.17;;;;;;;0.98;92.81;94543.75;4986462;28;20598;-74
2022/12/14 07:40:38;;;;;;;13.03;7.90;;;;;;;1.22;94.12;94568.88;4992021;28;20208;-74
2022/12/14 07:43:04;;;;;;;15.07;8.70;;;;;;;1.32;93.76;94563.53;4982382;28;20563;-74
2022/12/14 07:45:30;;;;;;;19.17;9.83;;;;;;;1.35;93.16;94565.81;4988973;28;20187;-73
2022/12/14 07:47:56;;;;;;;16.50;8.77;;;;;;;1.44;92.74;94565.66;4977730;28;20178;-75
2022/12/14 07:50:21;;;;;;;15.07;8.53;;;;;;;1.42;91.89;94546.06;4986990;28;20177;-74
2022/12/14 07:52:47;;;;;;;16.17;9.47;;;;;;;1.25;92.29;94528.88;4979413;28;20210;-74
2022/12/14 07:55:12;;;;;;;17.50;10.40;;;;;;;1.50;92.51;94551.22;4974416;28;20204;-74
2022/12/14 07:57:38;;;;;;;16.77;9.03;;;;;;;1.56;93.14;94555.75;4975672;28;20228;-73
2022/12/14 08:00:04;;;;;;;20.47;9.70;;;;;;;1.43;91.98;94555.47;4979361;28;20181;-74
2022/12/14 08:02:29;;;;;;;15.53;9.00;;;;;;;1.49;92.20;94567.75;4976258;28;20546;-73
2022/12/14 08:04:55;;;;;;;14.63;8.67;;;;;;;1.53;92.79;94579.44;4983212;28;20629;-74
2022/12/14 08:07:20;;;;;;;20.57;9.97;;;;;;;1.45;92.47;94577.66;4988883;28;20181;-76
2022/12/14 08:09:46;;;;;;;18.23;9.53;;;;;;;1.52;92.78;94585.59;4976446;28;20185;-75
2022/12/14 08:12:12;;;;;;;15.20;9.47;;;;;;;1.61;92.89;94578.63;4987987;28;20664;-75
2022/12/14 08:14:37;;;;;;;18.10;9.83;;;;;;;1.71;92.81;94587.88;4985303;28;20189;-76
2022/12/14 08:17:03;;;;;;;18.20;9.97;;;;;;;1.73;91.55;94590.31;4985485;28;20785;-76
2022/12/14 08:19:28;;;;;;;22.13;9.73;;;;;;;1.58;92.12;94577.16;4986861;28;20173;-76
2022/12/14 08:21:53;;;;;;;24.43;11.07;;;;;;;1.64;93.26;94579.13;4989400;28;20177;-76
2022/12/14 08:24:19;;;;;;;19.27;10.97;;;;;;;1.75;93.62;94586.56;4976230;28;20234;-76
2022/12/14 08:26:45;;;;;;;20.57;12.07;;;;;;;1.92;93.17;94605.50;4977775;28;20234;-76
2022/12/14 08:29:13;;;;;;;17.47;11.33;;;;;;;1.98;92.03;94599.69;4973981;28;20613;-75
2022/12/14 08:31:39;;;;;;;22.37;10.67;;;;;;;1.87;91.91;94585.25;4981349;28;20200;-75
2022/12/14 08:34:04;;;;;;;18.97;10.50;;;;;;;1.87;92.03;94593.03;4982264;28;20182;-75
2022/12/14 08:36:33;;;;;;;28.40;10.87;;;;;;;1.73;91.45;94570.34;4973399;28;20197;-77
2022/12/14 08:39:00;;;;;;;19.27;10.20;;;;;;;1.73;91.43;94572.16;4970723;28;20185;-77
2022/12/14 08:41:26;;;;;;;16.13;8.93;;;;;;;1.75;91.47;94583.16;4979122;28;20209;-76
2022/12/14 08:43:55;;;;;;;13.23;8.63;;;;;;;1.72;91.22;94592.09;4993652;28;20181;-76
2022/12/14 08:46:21;;;;;;;16.97;8.87;;;;;;;1.59;91.04;94591.75;4989298;28;20559;-77
2022/12/14 08:48:49;;;;;;;14.50;8.87;;;;;;;1.49;91.47;94594.50;4984869;28;20173;-76
2022/12/14 08:51:16;;;;;;;17.60;9.67;;;;;;;1.54;92.74;94591.44;4974481;28;20202;-76
2022/12/14 08:53:42;;;;;;;16.23;9.57;;;;;;;1.66;92.94;94579.75;4974160;28;20272;-76
2022/12/14 08:56:10;;;;;;;19.40;11.20;;;;;;;1.90;93.59;94587.50;4988591;28;20192;-76
2022/12/14 08:58:38;;;;;;;15.63;10.57;;;;;;;2.13;93.39;94586.81;4984836;28;20208;-76
2022/12/14 09:01:12;;;;;;;17.77;9.80;;;;;;;2.28;91.79;94595.53;4978061;28;20185;-76
2022/12/14 09:03:39;;;;;;;18.20;10.50;;;;;;;2.20;91.06;94583.41;4992251;28;20184;-76
2022/12/14 09:06:07;;;;;;;20.77;11.57;;;;;;;2.04;90.16;94565.28;4985122;28;20181;-77
2022/12/14 09:08:34;;;;;;;18.20;11.33;;;;;;;2.22;90.47;94588.44;4979424;28;20247;-76
2022/12/14 09:11:00;;;;;;;21.10;11.73;;;;;;;2.19;90.70;94576.56;4980117;28;20194;-76
2022/12/14 09:13:26;;;;;;;19.87;12.20;;;;;;;2.31;90.75;94579.63;4983449;28;20208;-76
2022/12/14 09:15:59;;;;;;;22.00;13.20;;;;;;;2.04;90.74;94517.75;4983691;28;20239;-76
2022/12/14 09:18:25;;;;;;;24.50;12.60;;;;;;;2.42;90.44;94573.28;4988596;28;20185;-76
2022/12/14 09:20:53;;;;;;;22.60;13.00;;;;;;;2.48;90.19;94570.00;4986362;28;20188;-77
2022/12/14 09:23:20;;;;;;;20.03;12.40;;;;;;;2.50;89.80;94574.06;4972887;28;20181;-75
2022/12/14 09:25:45;;;;;;;20.20;12.00;;;;;;;2.48;90.06;94552.63;4975396;28;20229;-76
2022/12/14 09:28:12;;;;;;;23.13;12.70;;;;;;;2.55;89.93;94547.56;4985986;28;20723;-75
2022/12/14 09:30:38;;;;;;;18.33;10.87;;;;;;;2.65;89.06;94555.97;4987385;28;20248;-75
2022/12/14 09:33:03;;;;;;;19.53;10.03;;;;;;;2.81;89.45;94552.47;4979743;28;20213;-75
2022/12/14 09:35:28;;;;;;;18.47;10.50;;;;;;;2.83;88.00;94542.72;4974560;28;20190;-76
2022/12/14 09:37:54;;;;;;;16.10;9.93;;;;;;;2.93;88.07;94551.09;4981177;28;20696;-77
2022/12/14 09:40:23;;;;;;;14.80;9.90;;;;;;;2.77;87.73;94527.81;4992469;28;20247;-77
2022/12/14 09:43:03;;;;;;;18.37;11.07;;;;;;;2.95;88.20;94554.31;4992555;28;20172;-76
2022/12/14 09:45:33;;;;;;;17.60;9.80;;;;;;;2.87;88.14;94537.00;4975030;28;20260;-75
2022/12/14 09:48:17;;;;;;;14.90;9.10;;;;;;;3.07;88.68;94547.75;4984135;28;20185;-75
2022/12/14 09:50:49;;;;;;;16.07;9.43;;;;;;;2.98;88.00;94526.22;4989291;28;20280;-75
2022/12/14 09:53:17;;;;;;;15.83;9.10;;;;;;;2.90;87.45;94515.06;4972672;28;20212;-76
2022/12/14 09:55:49;;;;;;;15.97;8.67;;;;;;;3.11;87.10;94545.63;4972038;28;20264;-75
2022/12/14 09:58:24;;;;;;;14.27;8.70;;;;;;;3.09;87.59;94538.00;4968531;28;20675;-75
2022/12/14 10:00:57;;;;;;;14.20;9.37;;;;;;;2.98;87.39;94504.59;4977215;28;20196;-76
2022/12/14 10:03:29;;;;;;;17.33;10.63;;;;;;;3.06;88.28;94517.53;4976073;28;20706;-76
2022/12/14 10:06:20;;;;;;;19.37;10.10;;;;;;;3.21;87.63;94536.59;4984229;28;20265;-76
2022/12/14 10:09:17;;;;;;;16.17;9.87;;;;;;;3.14;87.85;94522.69;4971213;28;20193;-76
2022/12/14 10:11:55;;;;;;;14.90;8.53;;;;;;;3.12;87.35;94516.03;4977674;28;20221;-74
2022/12/14 10:14:33;;;;;;;14.83;9.30;;;;;;;3.10;87.54;94498.03;4978899;28;20188;-77
2022/12/14 10:17:13;;;;;;;15.60;9.53;;;;;;;3.14;88.08;94496.69;4991992;28;20184;-77
2022/12/14 10:19:57;;;;;;;16.23;8.90;;;;;;;3.27;87.69;94524.72;4992021;28;20766;-78
2022/12/14 10:22:33;;;;;;;16.93;9.77;;;;;;;3.22;88.30;94517.41;4977238;28;20188;-76
2022/12/14 10:25:10;;;;;;;16.23;9.70;;;;;;;3.35;88.88;94516.84;4990312;28;20264;-76
2022/12/14 10:27:38;;;;;;;17.10;9.70;;;;;;;3.36;87.39;94518.47;4974338;28;20631;-77
2022/12/14 10:30:07;;;;;;;14.83;8.77;;;;;;;3.42;87.43;94517.75;4987400;28;20578;-76
2022/12/14 10:32:38;;;;;;;16.97;8.77;;;;;;;3.43;86.07;94519.38;4981814;28;20256;-76
2022/12/14 10:35:49;;;;;;;13.97;8.23;;;;;;;3.08;84.66;94515.59;4985017;28;20531;-77
2022/12/14 10:38:40;;;;;;;13.03;7.10;;;;;;;2.99;86.17;94506.22;4931938;29;20182;-77
2022/12/14 10:41:20;;;;;;;13.60;7.10;;;;;;;3.12;84.75;94511.63;4976712;28;20213;-77
2022/12/14 10:44:27;;;;;;;14.47;6.67;;;;;;;3.08;84.28;94510.38;4976266;28;20664;-76
2022/12/14 10:47:01;;;;;;;13.33;6.23;;;;;;;3.11;84.40;94504.03;4948229;28;20219;-76
2022/12/14 10:49:33;;;;;;;10.77;6.27;;;;;;;3.06;84.63;94501.94;4976621;28;20260;-76
2022/12/14 10:52:07;;;;;;;13.47;7.37;;;;;;;3.10;85.65;94499.81;4985829;28;20212;-76
2022/12/14 10:54:37;;;;;;;13.23;7.93;;;;;;;3.05;84.43;94495.13;4974102;28;20181;-76
2022/12/14 10:57:03;;;;;;;10.17;6.60;;;;;;;2.83;84.15;94481.16;4972522;28;20272;-75
2022/12/14 10:59:35;;;;;;;12.90;6.77;;;;;;;2.92;84.83;94487.91;4971780;28;20189;-76
2022/12/14 11:02:12;;;;;;;13.27;7.20;;;;;;;2.99;85.32;94486.25;4988398;28;20181;-76
2022/12/14 11:04:44;;;;;;;13.37;7.07;;;;;;;2.81;85.54;94462.31;4975716;28;20182;-76
2022/12/14 11:07:11;;;;;;;15.30;7.53;;;;;;;2.73;85.86;94433.00;4985026;28;20557;-77
2022/12/14 11:09:38;;;;;;;15.47;8.17;;;;;;;2.92;86.02;94461.94;4977220;28;20193;-76
2022/12/14 11:12:11;;;;;;;13.57;7.27;;;;;;;3.16;86.42;94478.31;4980616;28;20198;-77
2022/12/14 11:14:49;;;;;;;12.07;6.60;;;;;;;3.30;86.37;94472.34;4986751;28;20178;-76
2022/12/14 11:17:44;;;;;;;12.67;7.17;;;;;;;3.21;85.20;94479.41;4988512;28;20181;-77
2022/12/14 11:20:18;;;;;;;12.40;7.57;;;;;;;3.31;85.55;94474.75;4975267;28;20197;-78
2022/12/14 11:22:43;;;;;;;10.33;7.43;;;;;;;3.41;85.12;94474.53;4988564;28;20180;-78
2022/12/14 11:25:26;;;;;;;54.90;26.23;;;;;;;3.50;85.60;94472.66;4988278;28;20283;-78
2022/12/14 11:27:52;;;;;;;12.80;7.40;;;;;;;3.54;84.89;94461.72;4988972;28;20240;-77
2022/12/14 11:30:18;;;;;;;14.43;8.47;;;;;;;3.63;85.54;94462.47;4979031;28;20182;-76
2022/12/14 11:32:48;;;;;;;14.47;7.27;;;;;;;3.80;86.16;94456.09;4969990;28;20194;-78
2022/12/14 11:35:19;;;;;;;13.00;7.77;;;;;;;3.89;85.01;94465.44;4970511;28;20257;-79
2022/12/14 11:37:47;;;;;;;16.57;7.67;;;;;;;3.93;84.90;94456.25;4970713;28;20601;-77
2022/12/14 11:40:24;;;;;;;12.50;8.47;;;;;;;4.01;84.91;94452.75;4970838;28;20657;-77
2022/12/14 11:42:56;;;;;;;12.17;6.77;;;;;;;4.02;83.81;94436.16;4968817;28;20303;-77
2022/12/14 11:45:24;;;;;;;15.23;7.60;;;;;;;4.15;82.97;94468.34;4974190;28;20190;-77
2022/12/14 11:48:20;;;;;;;15.77;7.40;;;;;;;4.18;83.78;94455.00;4972770;28;20189;-77
2022/12/14 11:50:48;;;;;;;13.87;7.57;;;;;;;4.23;83.30;94453.66;4960901;28;20193;-77
2022/12/14 11:53:18;;;;;;;16.93;8.70;;;;;;;4.28;83.07;94451.28;4973936;28;20288;-77
2022/12/14 11:55:54;;;;;;;15.17;8.50;;;;;;;4.11;80.99;94456.72;4974444;28;20196;-77
2022/12/14 11:58:26;;;;;;;11.87;7.40;;;;;;;4.03;81.47;94442.97;4973927;28;20173;-77
2022/12/14 12:00:57;;;;;;;14.77;7.33;;;;;;;3.76;81.71;94410.56;4974164;28;20572;-77
2022/12/14 12:03:50;;;;;;;11.57;7.27;;;;;;;3.93;81.75;94450.25;4970109;28;20228;-77
2022/12/14 12:06:26;;;;;;;11.70;7.47;;;;;;;3.88;81.79;94421.34;4972117;28;20676;-76